Time;durP1;ratioP1;P1;durP2;ratioP2;P2;SDS_P1;SDS_P2;PMS_P1;PMS_P2;Temp;Humidity;BMP_temperature;BMP_pressure;BME280_temperature;BME280_humidity;BME280_pressure;Samples;Min_cycle;Max_cycle;Signal;HPM_P1;HPM_P2
2021/01/25 00:02:26;;;;;;;32.75;10.27;;;-0.10;99.90;;;;;;4366955;28;661913;-60
2021/01/25 00:05:14;;;;;;;27.23;10.10;;;0.20;99.90;;;;;;4363691;28;661777;-59
2021/01/25 00:08:02;;;;;;;33.40;12.37;;;0.10;99.90;;;;;;4339450;28;662276;-59
2021/01/25 00:10:49;;;;;;;30.87;10.70;;;-0.10;99.90;;;;;;4358219;28;659846;-61
2021/01/25 00:13:36;;;;;;;27.33;10.17;;;-0.10;99.90;;;;;;4372064;28;660553;-59
2021/01/25 00:16:23;;;;;;;28.83;10.32;;;-0.20;99.90;;;;;;4360893;28;661333;-60
2021/01/25 00:19:10;;;;;;;28.77;9.87;;;-0.20;99.90;;;;;;4353344;28;660999;-59
2021/01/25 00:21:58;;;;;;;41.77;13.43;;;-0.30;99.90;;;;;;4355413;28;661123;-59
2021/01/25 00:24:46;;;;;;;45.47;12.23;;;-0.40;99.90;;;;;;4367142;28;660951;-60
2021/01/25 00:27:33;;;;;;;28.73;10.23;;;-0.40;99.90;;;;;;4362488;28;660744;-59
2021/01/25 00:30:21;;;;;;;33.73;12.17;;;-0.10;99.90;;;;;;4340639;28;661074;-60
2021/01/25 00:33:08;;;;;;;34.57;11.77;;;-0.10;99.90;;;;;;4343391;28;661162;-59
2021/01/25 00:35:55;;;;;;;37.27;12.83;;;-0.20;99.90;;;;;;4332802;28;660866;-60
2021/01/25 00:38:43;;;;;;;31.95;11.48;;;-0.40;99.90;;;;;;4345184;28;662266;-59
2021/01/25 00:41:30;;;;;;;32.67;10.87;;;-0.50;99.90;;;;;;4332206;28;660813;-60
2021/01/25 00:44:18;;;;;;;38.07;12.17;;;-0.50;99.90;;;;;;4352585;28;660942;-60
2021/01/25 00:47:05;;;;;;;36.97;11.33;;;-0.50;99.90;;;;;;4327263;28;661665;-60
2021/01/25 00:49:52;;;;;;;37.53;12.00;;;-0.60;99.90;;;;;;4347261;28;661841;-60
2021/01/25 00:52:39;;;;;;;29.63;10.60;;;-0.60;99.90;;;;;;4340855;28;661081;-61
2021/01/25 00:55:27;;;;;;;33.83;12.30;;;-0.60;99.90;;;;;;4364925;28;661956;-60
2021/01/25 00:58:14;;;;;;;40.85;12.48;;;-0.50;99.90;;;;;;4339457;28;660770;-60
2021/01/25 01:01:01;;;;;;;34.53;10.93;;;-0.60;99.90;;;;;;4355514;28;660865;-60
2021/01/25 01:03:48;;;;;;;37.83;11.77;;;-0.50;99.90;;;;;;4353091;28;660652;-60
2021/01/25 01:06:35;;;;;;;29.83;11.43;;;-0.60;99.90;;;;;;4333621;28;661411;-60
2021/01/25 01:09:22;;;;;;;28.03;10.37;;;-0.50;99.90;;;;;;4356484;28;661791;-59
2021/01/25 01:12:11;;;;;;;27.20;10.00;;;-0.60;99.90;;;;;;4333329;28;660718;-61
2021/01/25 01:14:58;;;;;;;29.83;9.90;;;-0.60;99.90;;;;;;4354649;28;660647;-59
2021/01/25 01:17:45;;;;;;;28.07;10.70;;;-0.60;99.90;;;;;;4341424;28;659996;-60
2021/01/25 01:20:32;;;;;;;26.20;9.87;;;-0.60;99.90;;;;;;4353027;28;661749;-60
2021/01/25 01:23:19;;;;;;;25.80;10.23;;;-0.60;99.90;;;;;;4355338;28;659951;-61
2021/01/25 01:26:06;;;;;;;29.20;9.60;;;-0.70;99.90;;;;;;4355235;28;660728;-60
2021/01/25 01:28:54;;;;;;;25.57;9.10;;;-0.70;99.90;;;;;;4352107;28;660071;-59
2021/01/25 01:31:41;;;;;;;26.47;9.73;;;-0.70;99.90;;;;;;4337417;28;660323;-60
2021/01/25 01:34:28;;;;;;;30.40;10.37;;;-0.70;99.90;;;;;;4344028;28;661163;-59
2021/01/25 01:37:15;;;;;;;25.77;8.63;;;-0.70;99.90;;;;;;4347742;28;660673;-60
2021/01/25 01:40:03;;;;;;;28.33;10.20;;;-0.70;99.90;;;;;;4353226;28;661422;-60
2021/01/25 01:42:50;;;;;;;26.10;9.60;;;-0.70;99.90;;;;;;4349580;28;660747;-60
2021/01/25 01:45:38;;;;;;;24.50;9.10;;;-0.70;99.90;;;;;;4354911;28;661975;-60
2021/01/25 01:48:26;;;;;;;26.70;10.20;;;-0.70;99.90;;;;;;4342864;28;659837;-59
2021/01/25 01:51:12;;;;;;;23.90;9.50;;;-0.70;99.90;;;;;;4371687;28;661166;-60
2021/01/25 01:53:59;;;;;;;25.40;9.77;;;-0.70;99.90;;;;;;4354507;28;659712;-60
2021/01/25 01:56:46;;;;;;;30.53;9.73;;;-0.70;99.90;;;;;;4371478;28;660161;-60
2021/01/25 01:59:33;;;;;;;27.43;9.63;;;-0.70;99.90;;;;;;4367813;28;660666;-59
2021/01/25 02:02:21;;;;;;;31.97;9.87;;;-0.70;99.90;;;;;;4358763;28;659713;-60
2021/01/25 02:05:09;;;;;;;28.20;9.13;;;-0.70;99.90;;;;;;4367340;28;659216;-59
2021/01/25 02:07:56;;;;;;;30.47;9.83;;;-0.60;99.90;;;;;;4335382;28;660022;-61
2021/01/25 02:10:43;;;;;;;34.10;11.37;;;-0.50;99.90;;;;;;4365544;28;660448;-60
2021/01/25 02:13:31;;;;;;;30.03;10.17;;;-0.50;99.90;;;;;;4347675;28;662048;-60
2021/01/25 02:16:18;;;;;;;31.00;10.63;;;-0.50;99.90;;;;;;4346334;28;661231;-60
2021/01/25 02:19:06;;;;;;;29.02;10.73;;;-0.60;99.90;;;;;;4329204;28;660813;-60
2021/01/25 02:21:56;;;;;;;30.17;11.20;;;-0.70;99.90;;;;;;4353827;28;661066;-60
2021/01/25 02:24:45;;;;;;;25.70;10.93;;;-0.70;99.90;;;;;;4345867;28;660571;-60
2021/01/25 02:27:34;;;;;;;26.53;10.63;;;-0.80;99.90;;;;;;4340216;28;661177;-59
2021/01/25 02:30:21;;;;;;;33.47;11.57;;;-0.80;99.90;;;;;;4353644;28;661656;-60
2021/01/25 02:33:08;;;;;;;29.50;11.17;;;-0.80;99.90;;;;;;4369358;28;660985;-61
2021/01/25 02:35:55;;;;;;;27.55;10.57;;;-0.90;99.90;;;;;;4332917;28;660632;-60
2021/01/25 02:38:44;;;;;;;29.60;11.35;;;-0.90;99.90;;;;;;4356359;28;662084;-60
2021/01/25 02:41:31;;;;;;;32.50;11.83;;;-0.90;99.90;;;;;;4344707;28;662179;-60
2021/01/25 02:44:19;;;;;;;28.43;11.47;;;-1.00;99.90;;;;;;4360405;28;661257;-60
2021/01/25 02:47:06;;;;;;;36.23;13.63;;;-1.00;99.90;;;;;;4341370;28;661645;-59
2021/01/25 02:49:53;;;;;;;26.57;11.30;;;-1.00;99.90;;;;;;4360136;28;661568;-59
2021/01/25 02:52:40;;;;;;;29.83;10.33;;;-1.00;99.90;;;;;;4334034;28;661391;-61
2021/01/25 02:55:27;;;;;;;30.43;10.60;;;-1.00;99.90;;;;;;4368492;28;661746;-60
2021/01/25 02:58:14;;;;;;;27.07;10.30;;;-1.10;99.90;;;;;;4361270;28;661572;-61
2021/01/25 03:01:02;;;;;;;28.73;10.03;;;-1.10;99.90;;;;;;4382617;28;660544;-60
2021/01/25 03:03:50;;;;;;;30.05;11.25;;;-1.10;99.90;;;;;;4359782;28;660795;-61
2021/01/25 03:06:37;;;;;;;30.83;10.60;;;-1.10;99.90;;;;;;4364957;28;661610;-59
2021/01/25 03:09:24;;;;;;;31.08;10.55;;;-1.10;99.90;;;;;;4336521;28;661766;-61
2021/01/25 03:12:11;;;;;;;28.00;10.17;;;-1.10;99.90;;;;;;4364775;28;660961;-60
2021/01/25 03:14:58;;;;;;;27.07;10.57;;;-1.00;99.90;;;;;;4353459;28;660975;-59
2021/01/25 03:17:46;;;;;;;25.30;9.63;;;-1.00;99.90;;;;;;4356956;28;660942;-61
2021/01/25 03:20:33;;;;;;;25.43;10.07;;;-1.00;99.90;;;;;;4353803;28;661289;-60
2021/01/25 03:23:20;;;;;;;26.55;11.30;;;-1.00;99.90;;;;;;4331624;28;660813;-60
2021/01/25 03:26:07;;;;;;;29.38;11.40;;;-1.00;99.90;;;;;;4368209;28;661848;-59
2021/01/25 03:28:54;;;;;;;27.33;10.60;;;-1.00;99.90;;;;;;4358962;28;660625;-61
2021/01/25 03:31:41;;;;;;;22.92;10.75;;;-1.00;99.90;;;;;;4366985;28;662540;-60
2021/01/25 03:34:29;;;;;;;27.58;10.98;;;-1.00;99.90;;;;;;4367820;28;660640;-60
2021/01/25 03:37:16;;;;;;;21.93;9.77;;;-1.00;99.90;;;;;;4347072;28;661971;-60
2021/01/25 03:40:03;;;;;;;28.97;10.33;;;-1.00;99.90;;;;;;4372138;28;659698;-59
2021/01/25 03:42:50;;;;;;;48.53;15.63;;;-1.00;99.90;;;;;;4346028;28;660841;-60
2021/01/25 03:45:37;;;;;;;64.47;19.10;;;-1.00;99.90;;;;;;4362520;28;662323;-60
2021/01/25 03:48:24;;;;;;;51.00;15.30;;;-1.00;99.90;;;;;;4351923;28;662086;-60
2021/01/25 03:51:12;;;;;;;30.73;11.67;;;-1.00;99.90;;;;;;4374520;28;661920;-60
2021/01/25 03:54:00;;;;;;;30.37;11.87;;;-1.00;99.90;;;;;;4326659;28;660922;-60
2021/01/25 03:56:46;;;;;;;33.27;12.23;;;-1.10;99.90;;;;;;4362325;28;662511;-59
2021/01/25 03:59:34;;;;;;;26.17;11.53;;;-1.10;99.90;;;;;;4363301;28;660985;-61
2021/01/25 04:02:21;;;;;;;28.05;11.45;;;-1.10;99.90;;;;;;4369601;28;660919;-59
2021/01/25 04:05:09;;;;;;;26.40;11.00;;;-1.10;99.90;;;;;;4361331;28;661808;-59
2021/01/25 04:07:57;;;;;;;25.83;11.47;;;-1.10;99.90;;;;;;4358763;28;662407;-59
2021/01/25 04:10:44;;;;;;;29.90;12.27;;;-1.20;99.90;;;;;;4355697;28;660716;-61
2021/01/25 04:13:31;;;;;;;33.90;12.37;;;-1.20;99.90;;;;;;4370091;28;661320;-60
2021/01/25 04:16:18;;;;;;;36.10;12.80;;;-1.20;99.90;;;;;;4380955;28;661326;-60
2021/01/25 04:19:05;;;;;;;34.83;14.13;;;-1.20;99.90;;;;;;4363079;28;660887;-60
2021/01/25 04:21:53;;;;;;;38.43;14.23;;;-1.20;99.90;;;;;;4361591;28;661662;-59
2021/01/25 04:24:41;;;;;;;36.57;13.83;;;-1.20;99.90;;;;;;4369989;28;660861;-60
2021/01/25 04:27:28;;;;;;;36.50;13.97;;;-1.30;99.90;;;;;;4375076;28;660516;-60
2021/01/25 04:30:16;;;;;;;37.03;13.82;;;-1.30;99.90;;;;;;4340183;28;661392;-59
2021/01/25 04:33:03;;;;;;;59.23;19.40;;;-1.30;99.90;;;;;;4358510;28;661201;-60
2021/01/25 04:35:50;;;;;;;46.60;15.47;;;-1.30;99.90;;;;;;4350505;28;660700;-59
2021/01/25 04:38:37;;;;;;;76.07;23.65;;;-1.30;99.90;;;;;;4371892;28;662087;-60
2021/01/25 04:41:25;;;;;;;43.63;15.00;;;-1.30;99.90;;;;;;4353856;28;660881;-61
2021/01/25 04:44:12;;;;;;;39.17;14.23;;;-1.30;99.90;;;;;;4355338;28;661432;-59
2021/01/25 04:47:00;;;;;;;34.77;11.60;;;-1.30;99.90;;;;;;4349608;28;660716;-60
2021/01/25 04:49:47;;;;;;;35.17;13.30;;;-1.30;99.90;;;;;;4373711;28;662205;-60
2021/01/25 04:52:34;;;;;;;716.67;39.93;;;-1.40;99.90;;;;;;4359654;28;661494;-61
2021/01/25 04:55:21;;;;;;;29.90;12.30;;;-1.40;99.90;;;;;;4365224;28;661797;-60
2021/01/25 04:58:09;;;;;;;33.42;12.00;;;-1.30;99.90;;;;;;4366784;28;661203;-59
2021/01/25 05:00:56;;;;;;;34.42;12.50;;;-1.30;99.90;;;;;;4349368;28;662608;-60
2021/01/25 05:03:43;;;;;;;31.43;12.33;;;-1.30;99.90;;;;;;4360399;28;661011;-60
2021/01/25 05:06:30;;;;;;;32.13;12.43;;;-1.30;99.90;;;;;;4348864;28;661822;-59
2021/01/25 05:09:17;;;;;;;36.90;12.05;;;-1.30;99.90;;;;;;4369896;28;661754;-60
2021/01/25 05:12:04;;;;;;;29.40;11.70;;;-1.30;99.90;;;;;;4349795;28;661084;-60
2021/01/25 05:14:53;;;;;;;34.47;12.13;;;-1.30;99.90;;;;;;4355096;28;662183;-60
2021/01/25 05:17:39;;;;;;;31.40;11.63;;;-1.30;99.90;;;;;;4352977;28;660702;-60
2021/01/25 05:20:27;;;;;;;33.90;13.43;;;-1.40;99.90;;;;;;4356417;28;662015;-59
2021/01/25 05:23:15;;;;;;;39.20;13.30;;;-1.30;99.90;;;;;;4372007;28;662059;-60
2021/01/25 05:26:05;;;;;;;34.50;13.20;;;-1.30;99.90;;;;;;4367705;28;662135;-60
2021/01/25 05:28:53;;;;;;;29.33;13.03;;;-1.30;99.90;;;;;;4334424;28;661064;-59
2021/01/25 05:31:41;;;;;;;40.47;14.40;;;-1.30;99.90;;;;;;4343671;28;661110;-60
2021/01/25 05:34:29;;;;;;;37.13;14.50;;;-1.00;99.90;;;;;;4364715;28;660308;-60
2021/01/25 05:37:16;;;;;;;48.27;15.50;;;-1.10;99.90;;;;;;4347934;28;661649;-60
2021/01/25 05:40:04;;;;;;;40.43;14.07;;;-1.20;99.90;;;;;;4362555;28;660774;-60
2021/01/25 05:42:51;;;;;;;43.73;16.13;;;-1.20;99.90;;;;;;4332333;28;661211;-60
2021/01/25 05:45:38;;;;;;;36.47;15.03;;;-1.20;99.90;;;;;;4364902;28;660779;-60
2021/01/25 05:48:26;;;;;;;39.10;16.00;;;-1.10;99.90;;;;;;4349025;28;660813;-60
2021/01/25 05:51:14;;;;;;;43.27;16.17;;;-1.20;99.90;;;;;;4371900;28;660535;-60
2021/01/25 05:54:02;;;;;;;49.87;18.60;;;-1.20;99.90;;;;;;4345147;28;661632;-60
2021/01/25 05:56:49;;;;;;;39.83;16.03;;;-1.20;99.90;;;;;;4344833;28;660613;-61
2021/01/25 05:59:36;;;;;;;42.90;16.63;;;-1.20;99.90;;;;;;4371438;28;662009;-60
2021/01/25 06:02:23;;;;;;;45.57;17.47;;;-1.20;99.90;;;;;;4372243;28;660827;-58
2021/01/25 06:05:14;;;;;;;45.70;17.30;;;-1.30;99.90;;;;;;4346976;28;661686;-60
2021/01/25 06:08:07;;;;;;;50.00;18.70;;;-1.30;99.90;;;;;;4316627;28;661750;-60
2021/01/25 06:11:01;;;;;;;47.13;17.67;;;-1.30;99.90;;;;;;4323745;28;660378;-60
2021/01/25 06:13:53;;;;;;;49.87;17.80;;;-1.30;99.90;;;;;;4355775;28;660824;-60
2021/01/25 06:16:40;;;;;;;46.00;17.20;;;-1.30;99.90;;;;;;4323968;28;661228;-60
2021/01/25 06:19:28;;;;;;;44.17;17.70;;;-1.30;99.90;;;;;;4353102;28;662057;-59
2021/01/25 06:22:16;;;;;;;47.10;18.00;;;-1.30;99.90;;;;;;4356127;28;660639;-60
2021/01/25 06:25:03;;;;;;;42.90;17.77;;;-1.20;99.90;;;;;;4369152;28;660558;-60
2021/01/25 06:27:54;;;;;;;44.53;17.80;;;-1.20;99.90;;;;;;4348680;28;660661;-60
2021/01/25 06:30:43;;;;;;;52.23;18.77;;;-1.30;99.90;;;;;;4351236;28;662048;-60
2021/01/25 06:33:36;;;;;;;50.03;18.57;;;-1.20;99.90;;;;;;4347535;28;660722;-60
2021/01/25 06:36:24;;;;;;;43.97;18.63;;;-1.20;99.90;;;;;;4347038;28;661738;-60
2021/01/25 06:39:13;;;;;;;52.97;18.67;;;-1.20;99.90;;;;;;4340041;28;662279;-59
2021/01/25 06:42:01;;;;;;;50.70;16.93;;;-1.20;99.90;;;;;;4342733;28;662657;-60
2021/01/25 06:44:49;;;;;;;49.30;19.03;;;-1.10;99.90;;;;;;4384043;28;660954;-61
2021/01/25 06:47:37;;;;;;;49.47;19.38;;;-1.00;99.90;;;;;;4367447;28;661951;-60
2021/01/25 06:50:25;;;;;;;45.90;19.07;;;-1.00;99.90;;;;;;4355515;28;662002;-61
2021/01/25 06:53:12;;;;;;;53.20;20.58;;;-1.00;99.90;;;;;;4368901;28;661935;-60
2021/01/25 06:56:00;;;;;;;50.43;19.50;;;-1.00;99.90;;;;;;4352737;28;661912;-61
2021/01/25 06:58:47;;;;;;;58.13;19.33;;;-0.90;99.90;;;;;;4364993;28;661837;-60
2021/01/25 07:01:36;;;;;;;51.80;18.93;;;-0.80;99.90;;;;;;4341310;28;661126;-61
2021/01/25 07:04:24;;;;;;;48.97;19.33;;;-0.80;99.90;;;;;;4366075;28;661498;-59
2021/01/25 07:07:21;;;;;;;46.35;19.27;;;-0.80;99.90;;;;;;4354703;28;661710;-60
2021/01/25 07:10:09;;;;;;;47.85;19.10;;;-0.50;99.90;;;;;;4349578;28;660524;-61
2021/01/25 07:12:57;;;;;;;42.43;18.87;;;-0.60;99.90;;;;;;4351565;28;662369;-60
2021/01/25 07:15:44;;;;;;;56.47;21.03;;;-0.50;99.90;;;;;;4342045;28;660615;-62
2021/01/25 07:18:31;;;;;;;54.23;20.30;;;-0.50;99.90;;;;;;4376135;28;662085;-60
2021/01/25 07:21:19;;;;;;;43.57;18.93;;;-0.40;99.90;;;;;;4387620;28;660923;-61
2021/01/25 07:24:06;;;;;;;51.20;18.73;;;-0.50;99.90;;;;;;4351919;28;661167;-60
2021/01/25 07:26:53;;;;;;;44.10;18.03;;;-0.60;99.90;;;;;;4361029;28;661813;-60
2021/01/25 07:29:41;;;;;;;47.00;16.93;;;-0.50;99.90;;;;;;4351104;28;661100;-61
2021/01/25 07:32:28;;;;;;;45.73;18.50;;;-0.30;99.90;;;;;;4370766;28;660643;-59
2021/01/25 07:35:15;;;;;;;49.08;18.40;;;-0.40;99.90;;;;;;4357620;28;661777;-60
2021/01/25 07:38:02;;;;;;;26.80;11.97;;;-0.30;99.90;;;;;;4367622;28;660671;-60
2021/01/25 07:40:49;;;;;;;46.70;17.20;;;-0.10;99.90;;;;;;4359085;28;661494;-61
2021/01/25 07:43:37;;;;;;;44.50;17.07;;;0.00;99.90;;;;;;4369240;28;662162;-59
2021/01/25 07:46:25;;;;;;;40.92;16.63;;;0.00;99.90;;;;;;4344852;28;660821;-61
2021/01/25 07:49:12;;;;;;;36.28;14.55;;;0.10;99.90;;;;;;4367519;28;661089;-61
2021/01/25 07:51:59;;;;;;;46.97;16.77;;;0.10;99.90;;;;;;4346930;28;659926;-61
2021/01/25 07:54:47;;;;;;;42.80;15.50;;;0.00;99.90;;;;;;4369690;28;659754;-61
2021/01/25 07:57:34;;;;;;;34.83;12.73;;;0.00;99.90;;;;;;4347821;28;660391;-61
2021/01/25 08:00:22;;;;;;;42.70;16.13;;;0.10;99.90;;;;;;4363669;28;660740;-59
2021/01/25 08:03:14;;;;;;;38.72;16.20;;;0.30;99.90;;;;;;4355464;28;659849;-61
2021/01/25 08:06:05;;;;;;;32.80;14.67;;;0.20;99.90;;;;;;4339184;28;660944;-61
2021/01/25 08:08:52;;;;;;;39.27;14.30;;;0.20;99.90;;;;;;4344274;28;661499;-60
2021/01/25 08:11:39;;;;;;;36.13;15.17;;;0.10;99.90;;;;;;4361775;28;660481;-61
2021/01/25 08:14:28;;;;;;;35.73;12.67;;;0.30;99.90;;;;;;4361718;28;661537;-60
2021/01/25 08:17:17;;;;;;;31.97;13.63;;;0.40;99.90;;;;;;4333756;28;660639;-60
2021/01/25 08:20:08;;;;;;;30.47;11.53;;;0.30;99.90;;;;;;4352586;28;659513;-61
2021/01/25 08:23:06;;;;;;;28.23;11.67;;;0.30;99.90;;;;;;4351320;28;660651;-60
2021/01/25 08:25:57;;;;;;;27.20;11.47;;;0.30;99.90;;;;;;4347097;28;659697;-60
2021/01/25 08:28:45;;;;;;;25.60;9.57;;;0.30;99.90;;;;;;4337737;28;659868;-62
2021/01/25 08:31:35;;;;;;;28.93;12.60;;;0.40;99.90;;;;;;4359370;28;659093;-60
2021/01/25 08:34:27;;;;;;;30.17;11.50;;;0.50;99.90;;;;;;4345965;28;660224;-60
2021/01/25 08:37:24;;;;;;;31.83;12.37;;;0.30;99.90;;;;;;4325616;28;659889;-62
2021/01/25 08:40:12;;;;;;;29.53;12.93;;;0.40;99.90;;;;;;4306549;28;660380;-60
2021/01/25 08:42:59;;;;;;;34.30;12.53;;;0.20;99.90;;;;;;4358173;28;660486;-62
2021/01/25 08:45:46;;;;;;;28.57;12.40;;;0.20;99.90;;;;;;4356124;28;659418;-60
2021/01/25 08:48:34;;;;;;;44.70;16.23;;;0.10;99.90;;;;;;4361737;28;660333;-60
2021/01/25 08:51:28;;;;;;;39.90;16.23;;;0.00;99.90;;;;;;4357241;28;660707;-60
2021/01/25 08:54:21;;;;;;;37.60;15.63;;;-0.10;99.90;;;;;;4321629;28;660903;-61
2021/01/25 08:57:15;;;;;;;46.13;19.23;;;-0.10;99.90;;;;;;4335548;28;660909;-60
2021/01/25 09:00:13;;;;;;;43.30;18.37;;;-0.10;99.90;;;;;;4345369;28;661389;-60
2021/01/25 09:03:04;;;;;;;41.83;16.50;;;0.00;99.90;;;;;;4355992;28;660558;-61
2021/01/25 09:05:53;;;;;;;27.33;11.10;;;0.00;99.90;;;;;;4348067;28;660351;-60
2021/01/25 09:08:40;;;;;;;54.33;19.37;;;0.10;99.90;;;;;;4346414;28;659609;-60
2021/01/25 09:11:27;;;;;;;47.90;16.43;;;0.00;99.90;;;;;;4371177;28;660896;-60
2021/01/25 09:14:17;;;;;;;48.97;18.80;;;0.00;99.90;;;;;;4347500;28;660322;-61
2021/01/25 09:17:04;;;;;;;48.20;17.63;;;0.00;99.90;;;;;;4350923;28;659478;-61
2021/01/25 09:19:52;;;;;;;38.20;14.80;;;0.00;99.90;;;;;;4358750;28;660892;-60
2021/01/25 09:22:40;;;;;;;49.30;17.83;;;0.10;99.90;;;;;;4344565;28;660342;-62
2021/01/25 09:25:27;;;;;;;32.57;12.63;;;0.00;99.90;;;;;;4351413;28;660598;-59
2021/01/25 09:28:15;;;;;;;45.13;18.27;;;-0.10;99.90;;;;;;4352630;28;659624;-60
2021/01/25 09:31:02;;;;;;;44.83;17.97;;;-0.10;99.90;;;;;;4362020;28;661412;-60
2021/01/25 09:33:49;;;;;;;45.00;16.90;;;-0.20;99.90;;;;;;4367756;28;661080;-61
2021/01/25 09:36:37;;;;;;;40.90;16.63;;;-0.10;99.90;;;;;;4368494;28;662325;-60
2021/01/25 09:39:26;;;;;;;47.10;18.48;;;-0.10;99.90;;;;;;4352521;28;660624;-62
2021/01/25 09:42:13;;;;;;;44.60;18.57;;;-0.10;99.90;;;;;;4367142;28;660773;-60
2021/01/25 09:45:00;;;;;;;43.97;18.07;;;-0.10;99.90;;;;;;4346929;28;660460;-61
2021/01/25 09:47:47;;;;;;;43.93;17.67;;;0.00;99.90;;;;;;4363851;28;662490;-60
2021/01/25 09:50:34;;;;;;;45.40;19.25;;;-0.10;99.90;;;;;;4356871;28;659560;-61
2021/01/25 09:53:21;;;;;;;31.07;11.80;;;-0.10;99.90;;;;;;4364806;28;660804;-60
2021/01/25 09:56:09;;;;;;;44.03;17.53;;;-0.10;99.90;;;;;;4379809;28;660483;-60
2021/01/25 09:58:56;;;;;;;36.72;15.88;;;-0.10;99.90;;;;;;4349951;28;661662;-59
2021/01/25 10:01:43;;;;;;;41.45;16.75;;;-0.10;99.90;;;;;;4381607;28;661286;-61
2021/01/25 10:04:30;;;;;;;29.00;11.97;;;0.00;99.90;;;;;;4350306;28;660807;-59
2021/01/25 10:07:22;;;;;;;37.97;15.70;;;0.20;99.90;;;;;;4387245;28;660336;-60
2021/01/25 10:10:11;;;;;;;37.30;14.73;;;0.30;99.90;;;;;;4344385;28;660006;-61
2021/01/25 10:12:58;;;;;;;37.50;15.10;;;0.40;99.90;;;;;;4376706;28;660444;-60
2021/01/25 10:15:45;;;;;;;34.63;13.87;;;0.30;99.90;;;;;;4343885;28;659711;-60
2021/01/25 10:18:32;;;;;;;32.33;14.00;;;0.40;99.90;;;;;;4372127;28;661154;-59
2021/01/25 10:21:19;;;;;;;35.17;13.77;;;0.50;99.90;;;;;;4353848;28;659928;-60
2021/01/25 10:24:07;;;;;;;36.30;14.47;;;0.40;99.90;;;;;;4375719;28;661075;-60
2021/01/25 10:26:54;;;;;;;25.43;10.40;;;0.40;99.90;;;;;;4358749;28;659905;-61
2021/01/25 10:29:42;;;;;;;32.67;13.53;;;0.70;99.90;;;;;;4350304;28;661131;-60
2021/01/25 10:32:29;;;;;;;20.83;8.50;;;0.60;99.90;;;;;;4335067;28;659649;-62
2021/01/25 10:35:17;;;;;;;30.30;12.80;;;0.80;99.90;;;;;;4355539;28;659711;-59
2021/01/25 10:38:05;;;;;;;33.67;13.70;;;0.90;99.90;;;;;;4333397;28;660557;-61
2021/01/25 10:40:52;;;;;;;30.03;12.07;;;0.70;99.90;;;;;;4346125;28;660615;-60
2021/01/25 10:43:39;;;;;;;33.87;13.67;;;0.50;99.90;;;;;;4354167;28;659527;-61
2021/01/25 10:46:53;;;;;;;37.83;13.77;;;0.60;99.90;;;;;;4362325;28;661103;-59
2021/01/25 10:49:40;;;;;;;36.73;15.07;;;0.50;99.90;;;;;;4307836;28;660984;-60
2021/01/25 10:52:27;;;;;;;36.20;14.13;;;0.40;99.90;;;;;;4354299;28;660344;-60
2021/01/25 10:55:14;;;;;;;26.40;11.07;;;0.40;99.90;;;;;;4346995;28;659723;-61
2021/01/25 10:58:01;;;;;;;39.10;15.40;;;0.30;99.90;;;;;;4351870;28;661101;-61
2021/01/25 11:00:50;;;;;;;41.03;15.23;;;0.40;99.90;;;;;;4377108;28;660972;-60
2021/01/25 11:03:38;;;;;;;35.50;13.33;;;0.20;99.90;;;;;;4340555;28;660974;-60
2021/01/25 11:06:25;;;;;;;38.40;15.37;;;0.50;99.90;;;;;;4340099;28;659675;-60
2021/01/25 11:09:12;;;;;;;42.07;15.90;;;0.40;99.90;;;;;;4359212;28;659549;-61
2021/01/25 11:12:00;;;;;;;42.40;16.93;;;0.20;99.90;;;;;;4351566;28;659678;-60
2021/01/25 11:14:47;;;;;;;25.93;9.67;;;0.20;99.90;;;;;;4364281;28;660457;-60
2021/01/25 11:17:34;;;;;;;32.43;12.10;;;0.20;99.90;;;;;;4350267;28;658861;-61
2021/01/25 11:20:23;;;;;;;38.30;16.20;;;0.20;99.90;;;;;;4367487;28;660723;-60
2021/01/25 11:23:10;;;;;;;33.90;14.90;;;0.10;99.90;;;;;;4327439;28;660710;-60
2021/01/25 11:25:57;;;;;;;35.27;14.80;;;0.20;99.90;;;;;;4364818;28;660446;-60
2021/01/25 11:28:44;;;;;;;29.87;11.80;;;0.10;99.90;;;;;;4367907;28;661510;-61
2021/01/25 11:31:31;;;;;;;16.57;6.37;;;0.30;99.90;;;;;;4385345;28;659926;-60
2021/01/25 11:34:18;;;;;;;28.58;12.90;;;0.40;99.90;;;;;;4360553;28;658881;-60
2021/01/25 11:37:06;;;;;;;33.63;13.32;;;0.40;99.90;;;;;;4355002;28;661356;-60
2021/01/25 11:39:54;;;;;;;29.50;12.53;;;0.40;99.90;;;;;;4376149;28;660230;-60
2021/01/25 11:42:41;;;;;;;29.37;12.57;;;0.30;99.90;;;;;;4354985;28;661087;-60
2021/01/25 11:45:28;;;;;;;33.43;13.53;;;0.40;99.90;;;;;;4371535;28;660184;-60
2021/01/25 11:48:17;;;;;;;30.33;13.73;;;0.30;99.90;;;;;;4350380;28;659606;-60
2021/01/25 11:51:05;;;;;;;28.08;12.27;;;0.20;99.90;;;;;;4349914;28;660658;-62
2021/01/25 11:53:52;;;;;;;32.70;13.47;;;0.10;99.90;;;;;;4384572;28;661564;-60
2021/01/25 11:56:39;;;;;;;23.87;10.40;;;0.10;99.90;;;;;;4351134;28;659542;-61
2021/01/25 11:59:27;;;;;;;26.03;11.10;;;0.20;99.90;;;;;;4369652;28;660805;-59
2021/01/25 12:02:14;;;;;;;21.60;10.27;;;0.20;99.90;;;;;;4363452;28;659945;-61
2021/01/25 12:05:01;;;;;;;25.50;10.35;;;0.30;99.90;;;;;;4374631;28;659542;-61
2021/01/25 12:07:48;;;;;;;27.40;10.87;;;0.50;99.90;;;;;;4384679;28;659598;-60
2021/01/25 12:10:36;;;;;;;23.73;9.40;;;0.40;99.90;;;;;;4347070;28;659830;-60
2021/01/25 12:13:24;;;;;;;20.37;8.83;;;0.40;99.90;;;;;;4372012;28;659744;-61
2021/01/25 12:16:14;;;;;;;18.07;7.80;;;0.30;99.90;;;;;;4352289;28;660580;-60
2021/01/25 12:19:01;;;;;;;17.10;6.97;;;0.40;99.90;;;;;;4362066;28;659829;-60
2021/01/25 12:21:48;;;;;;;18.97;7.80;;;0.50;99.90;;;;;;4376770;28;658976;-60
2021/01/25 12:24:36;;;;;;;13.27;5.83;;;0.40;99.90;;;;;;4354484;28;658813;-61
2021/01/25 12:27:24;;;;;;;18.77;7.57;;;0.30;99.90;;;;;;4365865;28;658108;-60
2021/01/25 12:30:14;;;;;;;19.30;8.00;;;0.30;99.90;;;;;;4357541;28;660584;-60
2021/01/25 12:33:01;;;;;;;18.97;7.00;;;0.40;99.90;;;;;;4356782;28;659871;-60
2021/01/25 12:35:49;;;;;;;19.23;7.10;;;0.40;99.90;;;;;;4383528;28;658888;-61
2021/01/25 12:38:37;;;;;;;21.03;8.60;;;0.30;99.90;;;;;;4367659;28;658869;-60
2021/01/25 12:41:24;;;;;;;21.77;8.37;;;0.20;99.90;;;;;;4365602;28;658578;-62
2021/01/25 12:44:12;;;;;;;20.80;7.67;;;0.30;99.90;;;;;;4388002;28;658293;-60
2021/01/25 12:47:00;;;;;;;22.93;8.77;;;0.20;99.90;;;;;;4355280;28;658502;-61
2021/01/25 12:49:47;;;;;;;18.80;7.78;;;0.20;99.90;;;;;;4371420;28;660320;-60
2021/01/25 12:52:35;;;;;;;20.25;8.07;;;0.20;99.90;;;;;;4339703;28;658412;-61
2021/01/25 12:55:22;;;;;;;20.70;9.37;;;0.40;99.90;;;;;;4365224;28;659491;-60
2021/01/25 12:58:09;;;;;;;18.83;7.53;;;0.20;99.90;;;;;;4362479;28;658556;-62
2021/01/25 13:00:57;;;;;;;21.40;9.83;;;0.20;99.90;;;;;;4376226;28;659604;-61
2021/01/25 13:03:44;;;;;;;22.52;9.07;;;0.20;99.90;;;;;;4351130;28;658786;-61
2021/01/25 13:06:31;;;;;;;25.47;10.17;;;0.30;99.90;;;;;;4370066;28;660077;-60
2021/01/25 13:09:18;;;;;;;24.60;10.63;;;0.20;99.90;;;;;;4383518;28;659822;-60
2021/01/25 13:12:06;;;;;;;26.53;10.53;;;0.10;99.90;;;;;;4362360;28;660917;-60
2021/01/25 13:14:53;;;;;;;19.87;7.90;;;0.10;99.90;;;;;;4374801;28;660881;-60
2021/01/25 13:17:41;;;;;;;23.37;9.83;;;0.10;99.90;;;;;;4353034;28;658827;-61
2021/01/25 13:20:29;;;;;;;27.67;11.57;;;0.30;99.90;;;;;;4370741;28;659454;-61
2021/01/25 13:23:17;;;;;;;29.23;12.57;;;0.20;99.90;;;;;;4367662;28;661369;-60
2021/01/25 13:26:04;;;;;;;22.53;9.53;;;0.30;99.90;;;;;;4374191;28;659542;-62
2021/01/25 13:28:51;;;;;;;23.70;10.20;;;0.30;99.90;;;;;;4375381;28;660195;-60
2021/01/25 13:31:38;;;;;;;25.60;10.77;;;0.40;99.90;;;;;;4377602;28;659668;-61
2021/01/25 13:34:26;;;;;;;19.87;8.03;;;0.20;99.90;;;;;;4344779;28;661171;-59
2021/01/25 13:37:13;;;;;;;27.17;10.43;;;0.30;99.90;;;;;;4378661;28;658790;-60
2021/01/25 13:40:00;;;;;;;22.53;8.83;;;0.40;99.90;;;;;;4361423;28;660851;-60
2021/01/25 13:42:47;;;;;;;15.80;6.33;;;0.30;99.90;;;;;;4365451;28;658443;-60
2021/01/25 13:45:34;;;;;;;27.10;10.10;;;0.30;99.90;;;;;;4346997;28;658631;-61
2021/01/25 13:48:22;;;;;;;14.57;5.67;;;0.20;99.90;;;;;;4376238;28;661540;-61
2021/01/25 13:51:11;;;;;;;27.83;12.00;;;0.20;99.90;;;;;;4374463;28;658793;-62
2021/01/25 13:53:58;;;;;;;26.07;11.17;;;0.30;99.90;;;;;;4365249;28;659535;-60
2021/01/25 13:56:45;;;;;;;30.43;13.37;;;0.20;99.90;;;;;;4354293;28;659661;-60
2021/01/25 13:59:32;;;;;;;38.33;13.33;;;0.10;99.90;;;;;;4385292;28;662073;-60
2021/01/25 14:02:22;;;;;;;25.90;8.87;;;0.10;99.90;;;;;;4358414;28;660629;-62
2021/01/25 14:05:10;;;;;;;27.97;11.20;;;0.30;99.90;;;;;;4365581;28;659719;-61
2021/01/25 14:07:58;;;;;;;37.70;14.30;;;0.30;99.90;;;;;;4387147;28;661015;-60